Time;durP1;ratioP1;P1;durP2;ratioP2;P2;SDS_P1;SDS_P2;PMS_P1;PMS_P2;Temp;Humidity;BMP_temperature;BMP_pressure;BME280_temperature;BME280_humidity;BME280_pressure;Samples;Min_cycle;Max_cycle;Signal;HPM_P1;HPM_P2
2021/05/13 00:01:15;;;;;;;10.85;3.22;;;14.70;88.90;;;;;;5035300;28;20046;-89
2021/05/13 00:03:41;;;;;;;12.45;3.80;;;14.60;88.90;;;;;;5034092;28;20041;-89
2021/05/13 00:06:06;;;;;;;11.23;3.50;;;14.60;89.10;;;;;;5035026;28;20041;-89
2021/05/13 00:08:32;;;;;;;12.75;3.78;;;14.50;89.00;;;;;;5035564;28;20057;-91
2021/05/13 00:11:06;;;;;;;13.02;3.75;;;14.40;89.10;;;;;;5034078;28;20401;-91
2021/05/13 00:13:34;;;;;;;12.85;3.63;;;14.40;89.40;;;;;;5035571;28;20504;-93
2021/05/13 00:16:01;;;;;;;11.27;3.33;;;14.30;89.10;;;;;;5035210;28;20045;-91
2021/05/13 00:18:29;;;;;;;14.57;3.97;;;14.30;89.30;;;;;;5025654;28;20057;-90
2021/05/13 00:20:56;;;;;;;13.45;3.60;;;14.30;89.40;;;;;;5034884;28;20057;-91
2021/05/13 00:23:22;;;;;;;13.98;3.70;;;14.20;89.60;;;;;;5017344;28;20073;-91
2021/05/13 00:25:50;;;;;;;12.23;3.47;;;14.20;89.70;;;;;;5014543;28;20053;-91
2021/05/13 00:28:16;;;;;;;13.05;3.70;;;14.20;89.90;;;;;;5015507;28;20493;-91
2021/05/13 00:30:42;;;;;;;11.00;3.58;;;14.10;89.90;;;;;;5031727;28;20429;-90
2021/05/13 00:33:08;;;;;;;12.75;3.70;;;14.10;90.00;;;;;;5035028;28;20052;-92
2021/05/13 00:35:33;;;;;;;13.90;3.90;;;14.10;90.00;;;;;;5035207;28;20049;-91
2021/05/13 00:37:59;;;;;;;12.00;3.47;;;14.00;90.00;;;;;;5034554;28;20053;-92
2021/05/13 00:40:25;;;;;;;13.32;3.70;;;13.90;90.00;;;;;;5034686;28;20046;-92
2021/05/13 00:42:53;;;;;;;13.75;3.63;;;14.00;90.10;;;;;;5034916;28;20128;-92
2021/05/13 00:45:20;;;;;;;14.80;3.90;;;13.90;90.10;;;;;;5034433;28;20188;-90
2021/05/13 00:50:22;;;;;;;14.10;3.88;;;13.90;90.20;;;;;;5034681;28;20050;-90
2021/05/13 00:52:49;;;;;;;18.13;4.20;;;13.80;90.10;;;;;;5033636;28;20052;-90
2021/05/13 00:55:16;;;;;;;12.60;3.88;;;13.80;90.10;;;;;;5034744;28;20127;-91
2021/05/13 00:57:53;;;;;;;13.68;3.75;;;13.80;90.10;;;;;;5033888;28;20073;-90
2021/05/13 01:03:02;;;;;;;11.65;3.80;;;13.70;90.10;;;;;;5033872;28;20141;-90
2021/05/13 01:05:29;;;;;;;13.70;4.38;;;13.70;90.10;;;;;;5034166;28;20049;-90
2021/05/13 01:07:57;;;;;;;9.90;3.50;;;13.60;90.20;;;;;;5032570;28;20072;-90
2021/05/13 01:10:24;;;;;;;12.32;3.88;;;13.60;90.30;;;;;;5034268;28;20072;-90
2021/05/13 01:12:50;;;;;;;15.63;4.50;;;13.60;90.20;;;;;;5034287;28;20060;-90
2021/05/13 01:15:23;;;;;;;11.63;3.72;;;13.50;90.30;;;;;;5033640;28;20042;-90
2021/05/13 01:18:14;;;;;;;11.95;3.38;;;13.50;90.00;;;;;;5034149;28;20060;-90
2021/05/13 01:20:38;;;;;;;14.90;4.18;;;13.50;89.80;;;;;;5032669;28;20045;-89
2021/05/13 01:23:07;;;;;;;12.25;3.88;;;13.50;90.10;;;;;;5034186;28;20448;-89
2021/05/13 01:25:48;;;;;;;12.70;3.60;;;13.40;90.30;;;;;;5034097;28;20128;-90
2021/05/13 01:28:14;;;;;;;15.02;3.90;;;13.40;90.30;;;;;;5032988;28;20045;-90
2021/05/13 01:30:43;;;;;;;13.13;3.42;;;13.30;90.40;;;;;;5033426;28;20052;-90
2021/05/13 01:33:10;;;;;;;13.00;4.20;;;13.30;90.40;;;;;;5034229;28;20049;-90
2021/05/13 01:35:36;;;;;;;13.75;4.10;;;13.30;90.40;;;;;;5033043;28;20045;-88
2021/05/13 01:38:12;;;;;;;11.52;3.83;;;13.30;90.60;;;;;;5033541;28;20049;-90
2021/05/13 01:40:38;;;;;;;11.13;3.42;;;13.20;90.60;;;;;;5033274;28;20448;-90
2021/05/13 01:43:05;;;;;;;11.60;3.92;;;13.20;90.50;;;;;;5033306;28;20124;-88
2021/05/13 01:45:32;;;;;;;11.23;3.45;;;13.20;90.50;;;;;;5033891;28;20054;-89
2021/05/13 01:48:04;;;;;;;11.10;3.58;;;13.20;90.50;;;;;;5032908;28;20048;-91
2021/05/13 01:50:31;;;;;;;10.67;3.40;;;13.10;90.50;;;;;;5036276;28;20049;-90
2021/05/13 01:52:58;;;;;;;12.68;3.75;;;13.10;90.50;;;;;;5036209;28;20095;-92
2021/05/13 01:55:25;;;;;;;13.20;4.10;;;13.10;90.60;;;;;;5036028;28;20049;-90
2021/05/13 01:57:51;;;;;;;12.65;3.42;;;13.10;90.40;;;;;;5038104;28;20052;-89
2021/05/13 02:00:18;;;;;;;10.00;3.05;;;13.10;90.40;;;;;;5041639;28;20107;-90
2021/05/13 02:02:45;;;;;;;13.15;4.00;;;13.00;90.40;;;;;;5039479;28;20049;-90
2021/05/13 02:05:11;;;;;;;12.50;3.92;;;13.00;90.30;;;;;;5033427;28;20053;-89
2021/05/13 02:07:38;;;;;;;10.15;3.50;;;13.00;90.50;;;;;;5032919;28;20494;-89
2021/05/13 02:10:05;;;;;;;11.00;3.50;;;13.00;90.30;;;;;;5032596;28;20045;-89
2021/05/13 02:12:30;;;;;;;12.05;3.72;;;13.00;90.30;;;;;;5033020;28;20055;-90
2021/05/13 02:14:56;;;;;;;13.57;3.38;;;12.90;90.30;;;;;;5032855;28;20132;-89
2021/05/13 02:17:22;;;;;;;10.73;2.97;;;12.90;90.20;;;;;;5032012;28;20051;-89
2021/05/13 02:19:48;;;;;;;11.05;3.28;;;12.90;90.20;;;;;;5032642;28;20437;-89
2021/05/13 02:22:13;;;;;;;10.23;3.38;;;12.90;90.20;;;;;;5032983;28;20045;-90
2021/05/13 02:24:39;;;;;;;12.13;3.78;;;12.80;90.00;;;;;;5032394;28;20057;-90
2021/05/13 02:27:05;;;;;;;10.57;3.30;;;12.80;89.70;;;;;;5032756;28;20045;-90
2021/05/13 02:29:31;;;;;;;10.98;3.50;;;12.80;90.10;;;;;;5032925;28;20054;-90
2021/05/13 02:31:56;;;;;;;13.25;3.95;;;12.80;90.20;;;;;;5032119;28;20103;-91
2021/05/13 02:34:22;;;;;;;12.10;3.50;;;12.80;90.30;;;;;;5032568;28;20073;-89
2021/05/13 02:36:47;;;;;;;10.30;3.70;;;12.70;90.00;;;;;;5032096;28;20055;-90
2021/05/13 02:39:13;;;;;;;10.82;3.60;;;12.70;90.20;;;;;;5032447;28;20053;-91
2021/05/13 02:41:43;;;;;;;10.63;3.17;;;12.70;90.40;;;;;;5032984;28;20053;-91
2021/05/13 02:44:09;;;;;;;10.38;3.13;;;12.80;90.50;;;;;;5033016;28;20041;-90
2021/05/13 02:46:34;;;;;;;12.10;3.40;;;12.70;90.40;;;;;;5032213;28;20048;-89
2021/05/13 02:49:00;;;;;;;10.60;3.25;;;12.70;90.30;;;;;;5032265;28;20050;-90
2021/05/13 02:51:26;;;;;;;11.15;3.47;;;12.70;90.20;;;;;;5031964;28;20133;-90
2021/05/13 02:53:52;;;;;;;12.18;3.95;;;12.70;90.30;;;;;;5032467;28;20127;-89
2021/05/13 02:56:18;;;;;;;11.35;3.63;;;12.70;90.40;;;;;;5032431;28;20469;-88
2021/05/13 02:58:46;;;;;;;11.65;3.15;;;12.60;90.50;;;;;;5031956;28;20056;-90
2021/05/13 03:01:24;;;;;;;14.15;3.90;;;12.60;90.50;;;;;;5032406;28;20096;-90
2021/05/13 03:03:50;;;;;;;10.70;3.38;;;12.60;90.60;;;;;;5032184;28;20063;-89
2021/05/13 03:06:16;;;;;;;9.88;3.72;;;12.60;90.40;;;;;;5031900;28;20088;-90
2021/05/13 03:08:42;;;;;;;10.23;3.63;;;12.60;90.40;;;;;;5032785;28;20454;-91
2021/05/13 03:11:09;;;;;;;13.05;3.75;;;12.60;90.50;;;;;;5032506;28;20053;-93
2021/05/13 03:13:35;;;;;;;11.52;3.80;;;12.50;90.50;;;;;;5032023;28;20049;-89
2021/05/13 03:16:01;;;;;;;9.63;3.67;;;12.50;90.50;;;;;;5032088;28;20398;-90
2021/05/13 03:18:28;;;;;;;10.93;3.30;;;12.50;90.50;;;;;;5032464;28;20049;-90
2021/05/13 03:21:02;;;;;;;11.07;3.75;;;12.50;90.60;;;;;;5031928;28;20049;-90
2021/05/13 03:23:38;;;;;;;10.38;3.83;;;12.50;90.50;;;;;;5032708;28;20088;-92
2021/05/13 03:26:04;;;;;;;9.50;3.15;;;12.50;90.40;;;;;;5032109;28;20103;-91
2021/05/13 03:28:30;;;;;;;12.20;3.50;;;12.50;90.40;;;;;;5031584;28;20050;-89
2021/05/13 03:30:56;;;;;;;10.30;3.33;;;12.40;90.30;;;;;;5034663;28;20982;-89
2021/05/13 03:33:21;;;;;;;12.27;3.78;;;12.40;90.40;;;;;;5036216;28;20055;-90
2021/05/13 03:35:47;;;;;;;10.82;3.42;;;12.40;90.40;;;;;;5035032;28;20124;-89
2021/05/13 03:38:13;;;;;;;10.07;3.40;;;12.40;90.30;;;;;;5036114;28;20052;-89
2021/05/13 03:40:40;;;;;;;8.75;3.75;;;12.40;90.30;;;;;;5035461;28;20049;-89
2021/05/13 03:43:06;;;;;;;9.82;3.45;;;12.40;90.80;;;;;;5036268;28;20121;-90
2021/05/13 03:45:33;;;;;;;10.60;3.40;;;12.30;90.40;;;;;;5026020;28;20088;-91
2021/05/13 03:48:02;;;;;;;11.63;3.35;;;12.30;90.40;;;;;;5015233;28;20057;-89
2021/05/13 03:50:29;;;;;;;13.80;4.22;;;12.30;90.40;;;;;;5031534;28;20084;-90
2021/05/13 03:52:55;;;;;;;11.52;3.80;;;12.20;90.30;;;;;;5027794;28;20493;-90
2021/05/13 03:55:20;;;;;;;10.48;3.80;;;12.30;90.40;;;;;;5035404;28;20141;-90
2021/05/13 03:57:46;;;;;;;11.90;3.80;;;12.20;90.50;;;;;;5035347;28;20473;-89
2021/05/13 04:00:14;;;;;;;12.35;4.10;;;12.20;90.70;;;;;;5035482;28;20060;-90
2021/05/13 04:02:40;;;;;;;10.82;4.05;;;12.20;90.70;;;;;;5035184;28;20050;-90
2021/05/13 04:05:08;;;;;;;10.02;4.05;;;12.20;90.90;;;;;;5035342;28;20543;-92
2021/05/13 04:07:37;;;;;;;9.05;3.90;;;12.20;90.90;;;;;;5035749;28;20052;-90
2021/05/13 04:10:11;;;;;;;10.93;3.95;;;12.20;91.10;;;;;;5035098;28;20050;-91
2021/05/13 04:12:38;;;;;;;11.38;3.88;;;12.10;90.90;;;;;;5035037;28;20489;-90
2021/05/13 04:15:06;;;;;;;11.10;3.97;;;12.10;91.00;;;;;;5035684;28;20053;-91
2021/05/13 04:17:32;;;;;;;11.52;3.95;;;12.10;91.10;;;;;;5037788;28;20136;-90
2021/05/13 04:19:58;;;;;;;10.98;4.07;;;12.10;90.90;;;;;;5035576;28;20191;-91
2021/05/13 04:22:23;;;;;;;11.50;4.07;;;12.10;90.90;;;;;;5035622;28;20191;-91
2021/05/13 04:24:49;;;;;;;10.27;3.80;;;12.00;90.80;;;;;;5034122;28;20053;-90
2021/05/13 04:27:15;;;;;;;9.38;4.05;;;12.00;90.70;;;;;;5035184;28;20053;-91
2021/05/13 04:29:41;;;;;;;11.25;4.18;;;12.00;90.60;;;;;;5035118;28;20059;-90
2021/05/13 04:32:06;;;;;;;10.73;4.03;;;12.00;90.50;;;;;;5035032;28;20073;-91
2021/05/13 04:34:32;;;;;;;12.23;4.38;;;12.00;90.60;;;;;;5035185;28;20049;-90
2021/05/13 04:36:57;;;;;;;10.30;4.00;;;12.00;90.40;;;;;;5034715;28;20046;-90
2021/05/13 04:39:23;;;;;;;11.45;4.43;;;12.00;90.50;;;;;;5035367;28;20512;-91
2021/05/13 04:41:52;;;;;;;11.48;4.40;;;12.00;90.60;;;;;;5034846;28;20052;-90
2021/05/13 04:44:17;;;;;;;11.10;3.88;;;11.90;90.50;;;;;;5034598;28;20073;-91
2021/05/13 04:46:45;;;;;;;10.35;4.10;;;11.90;90.50;;;;;;5035063;28;20049;-91
2021/05/13 04:51:37;;;;;;;10.25;4.35;;;12.00;90.50;;;;;;5034966;28;20557;-93
2021/05/13 04:54:03;;;;;;;7.95;3.95;;;11.90;90.50;;;;;;5035027;28;20049;-92
2021/05/13 04:56:30;;;;;;;10.50;4.15;;;11.90;90.40;;;;;;5034866;28;20395;-91
2021/05/13 04:58:56;;;;;;;10.85;4.00;;;11.90;90.40;;;;;;5033906;28;20561;-91
2021/05/13 05:01:22;;;;;;;11.90;4.25;;;11.90;90.50;;;;;;5034602;28;20131;-91
2021/05/13 05:03:47;;;;;;;9.75;4.10;;;11.90;90.50;;;;;;5034205;28;20132;-91
2021/05/13 05:06:15;;;;;;;10.63;4.07;;;11.90;90.60;;;;;;5034249;28;20049;-91
2021/05/13 05:08:42;;;;;;;11.40;4.30;;;11.90;90.50;;;;;;5034699;28;20100;-91
2021/05/13 05:11:08;;;;;;;10.50;3.97;;;11.90;90.50;;;;;;5034567;28;20046;-91
2021/05/13 05:13:34;;;;;;;10.68;4.35;;;11.90;90.40;;;;;;5034349;28;20045;-90
2021/05/13 05:16:00;;;;;;;13.95;5.25;;;11.90;90.70;;;;;;5034090;28;20045;-90
2021/05/13 05:18:27;;;;;;;11.27;3.78;;;11.90;90.90;;;;;;5034065;28;20053;-91
2021/05/13 05:20:53;;;;;;;10.52;4.28;;;12.00;91.20;;;;;;5033439;28;20123;-91
2021/05/13 05:23:19;;;;;;;12.85;4.43;;;12.00;90.80;;;;;;5034131;28;20477;-91
2021/05/13 05:25:45;;;;;;;11.00;3.45;;;12.00;90.80;;;;;;5033942;28;20049;-90
2021/05/13 05:28:12;;;;;;;10.65;4.18;;;12.10;90.60;;;;;;5033462;28;20543;-90
2021/05/13 05:30:39;;;;;;;8.90;4.25;;;12.10;90.70;;;;;;5033603;28;20489;-90
2021/05/13 05:33:07;;;;;;;13.18;4.15;;;12.10;90.90;;;;;;5034218;28;20045;-91
2021/05/13 05:35:34;;;;;;;11.50;4.05;;;12.20;91.10;;;;;;5033717;28;20050;-90
2021/05/13 05:38:01;;;;;;;11.43;3.47;;;12.20;91.00;;;;;;5033515;28;20041;-92
2021/05/13 05:40:28;;;;;;;10.43;3.83;;;12.20;90.70;;;;;;5033394;28;20053;-93
2021/05/13 05:42:54;;;;;;;11.50;3.58;;;12.20;90.70;;;;;;5033826;28;20405;-90
2021/05/13 05:45:21;;;;;;;10.57;3.45;;;12.20;90.80;;;;;;5033906;28;20132;-90
2021/05/13 05:47:51;;;;;;;11.00;3.25;;;12.30;90.80;;;;;;5032740;28;20125;-90
2021/05/13 05:50:20;;;;;;;11.40;3.55;;;12.30;90.50;;;;;;5033441;28;20054;-91
2021/05/13 05:52:46;;;;;;;9.07;3.30;;;12.30;90.50;;;;;;5032885;28;20053;-92
2021/05/13 05:55:13;;;;;;;12.38;3.58;;;12.40;90.70;;;;;;5033135;28;20056;-90
2021/05/13 05:57:39;;;;;;;12.70;3.42;;;12.40;90.70;;;;;;5033283;28;20106;-92
2021/05/13 06:00:07;;;;;;;11.32;3.65;;;12.40;90.50;;;;;;5033323;28;20128;-91
2021/05/13 06:02:34;;;;;;;12.40;3.20;;;12.40;90.60;;;;;;5033070;28;20053;-93
2021/05/13 06:05:10;;;;;;;11.65;3.25;;;12.50;90.60;;;;;;5033785;28;20049;-92
2021/05/13 06:07:37;;;;;;;11.23;3.60;;;12.50;90.70;;;;;;5033491;28;20450;-89
2021/05/13 06:10:08;;;;;;;10.50;3.55;;;12.60;90.70;;;;;;5033216;28;20041;-92
2021/05/13 06:12:35;;;;;;;10.00;2.80;;;12.60;90.70;;;;;;5033712;28;20374;-90
2021/05/13 06:15:01;;;;;;;11.68;3.17;;;12.60;90.40;;;;;;5033285;28;20133;-90
2021/05/13 06:17:29;;;;;;;10.13;3.28;;;12.60;90.50;;;;;;5013033;28;20485;-91
2021/05/13 06:20:00;;;;;;;12.07;2.92;;;12.70;90.60;;;;;;5013609;28;20133;-90
2021/05/13 06:22:30;;;;;;;9.68;3.13;;;12.70;90.60;;;;;;5013425;28;20053;-92
2021/05/13 06:24:57;;;;;;;11.75;2.70;;;12.80;90.60;;;;;;5030455;28;20110;-94
2021/05/13 06:27:23;;;;;;;8.93;2.85;;;12.70;90.30;;;;;;5031017;28;20049;-93
2021/05/13 06:29:55;;;;;;;8.27;2.78;;;12.70;90.20;;;;;;5031344;28;20057;-92
2021/05/13 06:32:23;;;;;;;9.68;2.80;;;12.80;90.40;;;;;;5032897;28;20037;-93
2021/05/13 06:34:50;;;;;;;10.40;2.60;;;12.80;90.30;;;;;;5032735;28;20057;-92
2021/05/13 06:37:15;;;;;;;10.05;2.85;;;12.90;90.00;;;;;;5032856;28;20049;-92
2021/05/13 06:39:41;;;;;;;9.07;2.63;;;13.00;90.10;;;;;;5034481;28;20077;-91
2021/05/13 06:42:15;;;;;;;8.73;2.40;;;13.00;90.10;;;;;;5034441;28;20045;-92
2021/05/13 06:44:41;;;;;;;10.25;2.70;;;13.10;90.20;;;;;;5041476;28;20045;-90
2021/05/13 06:47:07;;;;;;;7.97;2.47;;;13.20;90.20;;;;;;5046576;28;20095;-94
2021/05/13 06:49:34;;;;;;;8.75;2.38;;;13.20;90.00;;;;;;5047134;28;20049;-94
2021/05/13 06:52:16;;;;;;;7.13;2.17;;;13.30;90.00;;;;;;5047748;28;20072;-95
2021/05/13 06:54:42;;;;;;;10.10;2.63;;;13.30;90.10;;;;;;5038595;28;20411;-95
2021/05/13 06:57:09;;;;;;;8.20;2.58;;;13.40;89.90;;;;;;5034824;28;20494;-95
2021/05/13 06:59:43;;;;;;;7.30;2.00;;;13.40;90.00;;;;;;5030441;28;20049;-95
2021/05/13 07:02:10;;;;;;;8.05;2.38;;;13.40;89.90;;;;;;5018395;28;20060;-94
2021/05/13 07:04:41;;;;;;;10.68;2.03;;;13.50;89.90;;;;;;5024774;28;20053;-87
2021/05/13 07:07:07;;;;;;;8.88;2.28;;;13.50;88.70;;;;;;5036319;28;20095;-87
2021/05/13 07:09:34;;;;;;;7.72;2.10;;;13.50;87.50;;;;;;5036629;28;20049;-87
2021/05/13 07:12:00;;;;;;;8.52;2.03;;;13.50;86.30;;;;;;5035775;28;20534;-86
2021/05/13 07:14:26;;;;;;;7.25;2.10;;;13.50;87.40;;;;;;5039509;28;20500;-90
2021/05/13 07:16:52;;;;;;;8.60;2.10;;;13.50;87.00;;;;;;5036679;28;20179;-88
2021/05/13 07:19:18;;;;;;;9.73;2.20;;;13.60;87.20;;;;;;5032066;28;20083;-88
2021/05/13 07:21:44;;;;;;;8.70;2.20;;;13.60;87.10;;;;;;5036674;28;20049;-90
2021/05/13 07:24:10;;;;;;;8.77;1.98;;;13.70;86.30;;;;;;5034354;28;20060;-91
2021/05/13 07:26:37;;;;;;;6.93;1.98;;;13.70;86.50;;;;;;5026910;28;20049;-88
2021/05/13 07:29:03;;;;;;;7.13;1.83;;;13.80;85.90;;;;;;5036563;28;20056;-89
2021/05/13 07:31:30;;;;;;;6.63;1.85;;;13.90;86.00;;;;;;5036002;28;20111;-90
2021/05/13 07:33:55;;;;;;;8.70;2.10;;;13.90;85.10;;;;;;5034357;28;20049;-87
2021/05/13 07:36:21;;;;;;;7.38;2.03;;;14.00;85.80;;;;;;5033665;28;20037;-86
2021/05/13 07:38:47;;;;;;;6.13;1.65;;;14.10;86.00;;;;;;5033214;28;20056;-85
2021/05/13 07:41:14;;;;;;;5.60;1.55;;;14.20;86.60;;;;;;5035400;28;20489;-90
2021/05/13 07:43:42;;;;;;;6.05;1.77;;;14.20;86.30;;;;;;5036055;28;20192;-90
2021/05/13 07:46:08;;;;;;;5.57;2.00;;;14.30;85.30;;;;;;5036001;28;20053;-88
2021/05/13 07:48:34;;;;;;;6.72;1.92;;;14.30;86.20;;;;;;5033994;28;20049;-90
2021/05/13 07:51:01;;;;;;;7.80;1.63;;;14.40;86.90;;;;;;5037416;28;20464;-92
2021/05/13 07:53:26;;;;;;;5.68;1.60;;;14.50;85.70;;;;;;5041047;28;20068;-94
2021/05/13 07:55:53;;;;;;;5.72;1.40;;;14.50;85.40;;;;;;5036265;28;20045;-93
2021/05/13 07:58:19;;;;;;;8.50;1.75;;;14.60;86.10;;;;;;5033752;28;20108;-93
2021/05/13 08:00:45;;;;;;;6.95;1.40;;;14.70;86.10;;;;;;5031784;28;20754;-93
2021/05/13 08:03:11;;;;;;;6.10;1.50;;;14.80;84.70;;;;;;5024212;28;20069;-90
2021/05/13 08:05:36;;;;;;;6.10;1.40;;;14.90;85.30;;;;;;5026452;28;20049;-93
2021/05/13 08:08:02;;;;;;;6.05;1.58;;;14.90;85.80;;;;;;5029965;28;20052;-91
2021/05/13 08:10:29;;;;;;;7.38;1.75;;;15.00;86.50;;;;;;5029321;28;20057;-94
2021/05/13 08:12:55;;;;;;;6.03;1.60;;;15.10;85.90;;;;;;5034078;28;20045;-94
2021/05/13 08:15:20;;;;;;;6.40;1.80;;;15.20;86.20;;;;;;5034489;28;20079;-93
2021/05/13 08:17:46;;;;;;;5.93;1.70;;;15.20;85.10;;;;;;5033419;28;20050;-91
2021/05/13 08:20:14;;;;;;;4.93;1.77;;;15.40;86.10;;;;;;5035863;28;20054;-90
2021/05/13 08:22:42;;;;;;;7.05;1.75;;;15.40;85.80;;;;;;5034507;28;20050;-90
2021/05/13 08:25:08;;;;;;;8.38;2.78;;;15.50;85.50;;;;;;5038284;28;20046;-94
2021/05/13 08:27:35;;;;;;;5.63;2.10;;;15.50;82.40;;;;;;5032518;28;20076;-94
2021/05/13 08:30:03;;;;;;;6.35;2.40;;;15.50;82.40;;;;;;5034530;28;20133;-93
2021/05/13 08:32:29;;;;;;;7.47;2.97;;;15.50;82.00;;;;;;5038229;28;20053;-93
2021/05/13 08:34:55;;;;;;;9.25;2.80;;;15.60;82.90;;;;;;5036713;28;20057;-95
2021/05/13 08:37:21;;;;;;;10.52;3.30;;;15.60;83.10;;;;;;5036737;28;20051;-88
2021/05/13 08:39:47;;;;;;;9.00;2.63;;;15.70;80.30;;;;;;5035207;28;20053;-89
2021/05/13 08:42:13;;;;;;;8.13;2.63;;;15.70;78.90;;;;;;5035673;28;20543;-92
2021/05/13 08:44:43;;;;;;;6.53;2.47;;;15.80;79.80;;;;;;5034149;28;20064;-89
2021/05/13 08:47:09;;;;;;;7.82;2.20;;;15.90;80.40;;;;;;5036042;28;20069;-94
2021/05/13 08:49:36;;;;;;;8.27;2.30;;;15.90;80.50;;;;;;5030046;28;20107;-89
2021/05/13 08:52:18;;;;;;;8.02;2.42;;;16.00;80.80;;;;;;5031821;28;20061;-94
2021/05/13 08:54:54;;;;;;;6.60;2.20;;;16.10;81.50;;;;;;5032382;28;20045;-93
2021/05/13 08:57:21;;;;;;;9.13;2.45;;;16.10;80.20;;;;;;5033933;28;20096;-93
2021/05/13 08:59:47;;;;;;;9.35;2.80;;;16.20;81.40;;;;;;5033303;28;20056;-92
2021/05/13 09:02:15;;;;;;;8.35;2.30;;;16.30;79.60;;;;;;5019832;28;20052;-90
2021/05/13 09:04:48;;;;;;;9.00;2.70;;;16.40;81.30;;;;;;5027185;28;20045;-86
2021/05/13 09:07:16;;;;;;;;;;;16.40;79.80;;;;;;5030906;28;20120;-86
2021/05/13 09:09:56;;;;;;;6.68;2.35;;;16.50;81.60;;;;;;5034332;28;19948;-83
2021/05/13 09:12:22;;;;;;;6.55;2.38;;;16.60;82.30;;;;;;5033664;28;20524;-83
2021/05/13 09:15:05;;;;;;;9.23;2.35;;;16.70;83.30;;;;;;5034131;28;20069;-83
2021/05/13 09:17:31;;;;;;;8.73;2.33;;;16.80;83.20;;;;;;5034356;28;20049;-84
2021/05/13 09:19:59;;;;;;;9.40;2.70;;;16.90;79.50;;;;;;5016796;28;20429;-88
2021/05/13 09:22:27;;;;;;;9.45;2.58;;;16.80;77.10;;;;;;5015946;28;20049;-87
2021/05/13 09:24:58;;;;;;;7.28;2.70;;;16.80;79.30;;;;;;5013914;28;20429;-87
2021/05/13 09:27:46;;;;;;;7.28;2.35;;;16.90;81.00;;;;;;5027844;28;20053;-88
2021/05/13 09:30:24;;;;;;;11.90;2.70;;;17.00;81.00;;;;;;5020923;28;20473;-89
2021/05/13 09:32:59;;;;;;;9.23;2.60;;;17.00;82.00;;;;;;5021719;28;20099;-88
2021/05/13 09:35:27;;;;;;;10.40;2.83;;;17.20;82.30;;;;;;5026985;28;20131;-89
2021/05/13 09:37:58;;;;;;;7.55;2.83;;;17.30;82.40;;;;;;5032247;28;20065;-88
2021/05/13 09:40:34;;;;;;;11.13;2.53;;;17.40;81.40;;;;;;5029553;28;20488;-89
2021/05/13 09:43:14;;;;;;;10.02;2.38;;;17.50;81.20;;;;;;5032161;28;20049;-89
2021/05/13 09:45:45;;;;;;;7.90;2.38;;;17.60;81.60;;;;;;5029570;28;20077;-88
2021/05/13 09:48:11;;;;;;;10.77;2.45;;;17.70;82.20;;;;;;5028595;28;20045;-88
2021/05/13 09:50:37;;;;;;;8.02;2.45;;;17.80;80.00;;;;;;5031758;28;20535;-88
2021/05/13 09:53:03;;;;;;;9.93;2.38;;;17.90;77.50;;;;;;5031939;28;20054;-87
2021/05/13 09:55:35;;;;;;;9.00;2.40;;;17.90;78.30;;;;;;5031281;28;20120;-88
2021/05/13 09:58:06;;;;;;;11.20;2.60;;;17.90;74.60;;;;;;5032129;28;20080;-88
2021/05/13 10:00:48;;;;;;;7.70;2.45;;;17.90;75.20;;;;;;5028767;28;20390;-89
2021/05/13 10:03:24;;;;;;;10.25;2.22;;;17.90;75.80;;;;;;5029990;28;20128;-88
2021/05/13 10:05:53;;;;;;;7.38;2.00;;;17.90;74.40;;;;;;5031674;28;20046;-88
2021/05/13 10:08:19;;;;;;;7.38;2.28;;;18.00;78.10;;;;;;5031270;28;20092;-88
2021/05/13 10:10:45;;;;;;;8.32;1.80;;;18.10;80.00;;;;;;5031914;28;20060;-88
2021/05/13 10:13:13;;;;;;;9.68;2.42;;;18.20;76.90;;;;;;5029350;28;20045;-88
2021/05/13 10:15:41;;;;;;;6.18;2.20;;;18.30;76.20;;;;;;5030500;28;20054;-88
2021/05/13 10:18:15;;;;;;;11.30;2.40;;;18.40;78.20;;;;;;5032978;28;20046;-86
2021/05/13 10:20:41;;;;;;;8.20;2.28;;;18.50;79.00;;;;;;5031763;28;20501;-89
2021/05/13 10:23:12;;;;;;;7.95;2.30;;;18.60;78.80;;;;;;5032534;28;20049;-87
2021/05/13 10:25:39;;;;;;;10.25;2.30;;;18.70;78.50;;;;;;5027828;28;20464;-89
2021/05/13 10:28:14;;;;;;;7.03;2.00;;;18.80;74.00;;;;;;5085355;23;20049;-96
2021/05/13 10:30:40;;;;;;;10.27;2.03;;;18.70;74.70;;;;;;5015143;28;20066;-90
2021/05/13 10:33:17;;;;;;;8.02;2.15;;;18.80;75.20;;;;;;5013976;28;20050;-90
2021/05/13 10:36:09;;;;;;;5.95;1.70;;;18.80;75.50;;;;;;5007084;28;20494;-92
2021/05/13 10:38:43;;;;;;;8.10;1.77;;;18.90;77.20;;;;;;5013676;28;20121;-91
2021/05/13 10:41:27;;;;;;;6.35;1.85;;;19.00;77.00;;;;;;5012047;28;20073;-87
2021/05/13 10:43:54;;;;;;;5.88;1.85;;;19.10;77.60;;;;;;5012351;28;20053;-90
2021/05/13 10:46:30;;;;;;;6.50;1.98;;;19.20;79.80;;;;;;5013538;28;20124;-87
2021/05/13 10:49:15;;;;;;;7.35;2.00;;;19.30;80.30;;;;;;5011615;28;20449;-90
2021/05/13 10:51:45;;;;;;;6.60;1.90;;;19.40;74.30;;;;;;5010737;28;20045;-91
2021/05/13 10:54:44;;;;;;;8.10;1.85;;;19.40;74.70;;;;;;5013314;28;20137;-87
2021/05/13 10:57:18;;;;;;;8.10;1.92;;;19.40;71.20;;;;;;4969658;28;20049;-92
2021/05/13 11:00:08;;;;;;;8.57;1.80;;;19.40;75.00;;;;;;5012797;28;20145;-86
2021/05/13 11:02:45;;;;;;;9.07;1.65;;;19.50;75.60;;;;;;5013066;28;20057;-90
2021/05/13 11:05:42;;;;;;;6.53;1.60;;;19.50;73.50;;;;;;5012812;28;20096;-87
2021/05/13 11:08:08;;;;;;;7.60;1.70;;;19.60;76.10;;;;;;5013756;28;20079;-90
2021/05/13 11:10:49;;;;;;;7.35;1.90;;;19.70;76.40;;;;;;5015422;28;20510;-87
2021/05/13 11:13:15;;;;;;;6.43;1.55;;;19.80;75.90;;;;;;5013808;28;20100;-88
2021/05/13 11:15:44;;;;;;;9.43;1.63;;;19.90;77.50;;;;;;5019475;28;20069;-88
2021/05/13 11:18:12;;;;;;;6.45;1.60;;;20.00;75.50;;;;;;5014701;28;20195;-89
2021/05/13 11:20:44;;;;;;;5.93;1.40;;;20.00;74.60;;;;;;4995464;28;20050;-88
2021/05/13 11:23:19;;;;;;;6.93;1.65;;;20.00;75.30;;;;;;4995725;28;20042;-87
2021/05/13 11:26:11;;;;;;;7.13;1.50;;;20.10;75.00;;;;;;4997691;28;20069;-89
2021/05/13 11:28:43;;;;;;;5.50;1.45;;;20.20;73.70;;;;;;5003100;28;20128;-89
2021/05/13 11:31:18;;;;;;;5.65;1.40;;;20.20;74.30;;;;;;5012923;28;20413;-89
2021/05/13 11:33:57;;;;;;;5.90;1.58;;;20.20;72.70;;;;;;5010935;28;20046;-89
2021/05/13 11:36:24;;;;;;;6.30;1.50;;;20.40;74.10;;;;;;5011958;28;20498;-88
2021/05/13 11:39:00;;;;;;;4.15;1.20;;;20.30;74.20;;;;;;5012496;28;20046;-88
2021/05/13 11:41:27;;;;;;;6.20;1.52;;;20.30;71.20;;;;;;5012450;28;20453;-89
2021/05/13 11:43:53;;;;;;;7.63;1.65;;;20.30;72.60;;;;;;5012265;28;20073;-89
2021/05/13 11:46:22;;;;;;;5.03;1.30;;;20.30;74.10;;;;;;5011895;28;20501;-89
2021/05/13 11:48:49;;;;;;;4.88;1.75;;;20.30;74.50;;;;;;5012210;28;20046;-88
2021/05/13 11:51:27;;;;;;;6.43;1.48;;;20.50;74.70;;;;;;5014158;28;20046;-88
2021/05/13 11:53:54;;;;;;;6.30;1.42;;;20.60;75.80;;;;;;5014909;28;20050;-88
2021/05/13 11:56:20;;;;;;;6.70;1.50;;;20.70;74.70;;;;;;5016310;28;20157;-88
2021/05/13 11:58:50;;;;;;;7.82;1.30;;;20.80;74.20;;;;;;5015743;28;20401;-88
2021/05/13 12:01:46;;;;;;;5.13;1.30;;;20.90;74.90;;;;;;5015351;28;20137;-88
2021/05/13 12:04:14;;;;;;;7.05;1.60;;;20.90;71.40;;;;;;5015503;28;20501;-87
2021/05/13 12:06:44;;;;;;;5.70;1.27;;;21.00;72.60;;;;;;5014794;28;20391;-88
2021/05/13 12:09:14;;;;;;;6.45;1.65;;;21.00;72.80;;;;;;5013777;28;20103;-89
2021/05/13 12:11:41;;;;;;;4.63;1.40;;;21.00;69.30;;;;;;5014477;28;20057;-88
2021/05/13 12:14:17;;;;;;;5.97;1.63;;;20.90;70.30;;;;;;5006193;28;20052;-88
2021/05/13 12:16:43;;;;;;;7.00;1.75;;;20.80;65.40;;;;;;5012935;28;20060;-88
2021/05/13 12:19:12;;;;;;;6.15;1.50;;;20.70;64.20;;;;;;5015791;28;20124;-89
2021/05/13 12:21:39;;;;;;;5.32;1.50;;;20.60;68.50;;;;;;5014055;28;20065;-88
2021/05/13 12:24:07;;;;;;;5.18;1.30;;;20.60;71.80;;;;;;5014610;28;20045;-90
2021/05/13 12:26:37;;;;;;;8.07;1.77;;;20.70;66.80;;;;;;5013851;28;20046;-95
2021/05/13 12:29:05;;;;;;;9.07;1.60;;;20.60;66.60;;;;;;5012630;28;20077;-93
2021/05/13 12:31:36;;;;;;;8.88;1.65;;;20.60;62.60;;;;;;5014416;28;20076;-83
2021/05/13 12:34:05;;;;;;;5.70;1.40;;;20.50;63.80;;;;;;5014407;28;20046;-85
2021/05/13 12:36:37;;;;;;;7.88;1.80;;;20.60;66.90;;;;;;5013657;28;20498;-83
2021/05/13 12:39:05;;;;;;;5.28;1.58;;;20.70;68.10;;;;;;5013778;28;20141;-84
2021/05/13 12:41:31;;;;;;;6.07;1.60;;;20.70;71.10;;;;;;5014881;28;20054;-89
2021/05/13 12:44:08;;;;;;;6.82;1.48;;;20.90;72.60;;;;;;5006901;28;20046;-88
2021/05/13 12:46:43;;;;;;;6.97;1.60;;;21.00;71.40;;;;;;5014945;28;20490;-89
2021/05/13 12:49:23;;;;;;;6.30;1.30;;;21.10;73.00;;;;;;5015259;28;20133;-90
2021/05/13 12:52:09;;;;;;;6.00;1.27;;;21.10;72.60;;;;;;5015252;28;20487;-85
2021/05/13 12:54:37;;;;;;;7.15;1.88;;;21.20;74.20;;;;;;5014804;28;20401;-84
2021/05/13 12:57:18;;;;;;;5.65;1.80;;;21.40;69.80;;;;;;5013890;28;20038;-85
2021/05/13 12:59:53;;;;;;;6.38;1.85;;;21.40;71.10;;;;;;5013549;28;20053;-88